createdAt,value
2023-02-12T00:00:54.191Z,11.67
2023-02-12T00:03:21.402Z,8.30
2023-02-12T00:05:48.823Z,10.50
2023-02-12T00:08:16.405Z,7.60
2023-02-12T00:10:45.692Z,8.57
2023-02-12T00:13:13.724Z,7.10
2023-02-12T00:15:42.555Z,8.90
2023-02-12T00:18:10.079Z,8.13
2023-02-12T00:20:38.335Z,7.73
2023-02-12T00:23:06.158Z,10.57
2023-02-12T00:25:33.812Z,11.80
2023-02-12T00:28:01.080Z,9.90
2023-02-12T00:30:28.372Z,7.07
2023-02-12T00:32:56.512Z,5.73
2023-02-12T00:35:23.671Z,6.00
2023-02-12T00:37:50.990Z,5.00
2023-02-12T00:40:18.380Z,7.27
2023-02-12T00:42:46.218Z,5.27
2023-02-12T00:45:13.386Z,4.63
2023-02-12T00:47:40.527Z,9.03
2023-02-12T00:50:09.309Z,4.30
2023-02-12T00:52:36.588Z,3.67
2023-02-12T00:55:05.479Z,5.23
2023-02-12T00:57:33.410Z,5.73
2023-02-12T01:00:00.564Z,4.07
2023-02-12T01:02:27.761Z,4.73
2023-02-12T01:04:54.982Z,4.20
2023-02-12T01:07:25.067Z,4.60
2023-02-12T01:09:52.609Z,5.03
2023-02-12T01:12:19.862Z,4.70
2023-02-12T01:14:47.225Z,4.80
2023-02-12T01:17:14.772Z,3.43
2023-02-12T01:19:45.024Z,3.80
2023-02-12T01:22:12.840Z,2.73
2023-02-12T01:24:39.990Z,3.57
2023-02-12T01:27:07.319Z,2.90
2023-02-12T01:29:34.511Z,2.83
2023-02-12T01:32:01.991Z,4.17
2023-02-12T01:34:29.868Z,4.37
2023-02-12T01:36:57.055Z,6.87
2023-02-12T01:39:24.242Z,2.77
2023-02-12T01:41:51.689Z,3.10
2023-02-12T01:44:21.894Z,2.80
2023-02-12T01:46:54.649Z,4.67
2023-02-12T01:49:29.040Z,3.90
2023-02-12T01:52:14.955Z,4.70
2023-02-12T01:54:42.965Z,6.57
2023-02-12T01:57:12.691Z,3.37
2023-02-12T01:59:43.021Z,3.00
2023-02-12T02:02:10.303Z,5.80
2023-02-12T02:04:43.835Z,5.20
2023-02-12T02:07:12.428Z,3.90
2023-02-12T02:09:40.275Z,3.80
2023-02-12T02:12:26.691Z,4.33
2023-02-12T02:15:00.201Z,5.70
2023-02-12T02:17:50.155Z,4.63
2023-02-12T02:20:44.022Z,5.20
2023-02-12T02:23:27.332Z,4.50
2023-02-12T02:26:12.648Z,5.00
2023-02-12T02:29:02.548Z,3.80
2023-02-12T02:31:55.168Z,4.47
2023-02-12T02:34:38.534Z,5.83
2023-02-12T02:37:21.029Z,3.57
2023-02-12T02:39:59.869Z,6.77
2023-02-12T02:42:33.028Z,6.53
2023-02-12T02:45:24.584Z,4.03
2023-02-12T02:48:02.345Z,5.50
2023-02-12T02:50:32.687Z,4.73
2023-02-12T02:53:04.387Z,6.13
2023-02-12T02:55:40.218Z,4.53
2023-02-12T02:58:13.338Z,8.17
2023-02-12T03:01:05.143Z,6.47
2023-02-12T03:03:37.566Z,6.07
2023-02-12T03:06:13.731Z,7.63
2023-02-12T03:08:52.569Z,8.13
2023-02-12T03:11:28.911Z,6.03
2023-02-12T03:14:12.140Z,6.37
2023-02-12T03:16:47.153Z,5.93
2023-02-12T03:19:21.371Z,6.80
2023-02-12T03:22:00.429Z,7.57
2023-02-12T03:24:49.857Z,7.70
2023-02-12T03:27:29.380Z,10.40
2023-02-12T03:29:58.526Z,9.40
2023-02-12T03:32:44.438Z,9.53
2023-02-12T03:35:25.590Z,7.87
2023-02-12T03:38:11.914Z,9.30
2023-02-12T03:40:59.430Z,8.47
2023-02-12T03:43:59.496Z,6.80
2023-02-12T03:46:42.923Z,13.20
2023-02-12T03:49:24.156Z,19.43
2023-02-12T03:51:51.343Z,16.07
2023-02-12T03:54:21.075Z,25.03
2023-02-12T03:57:02.962Z,23.07
2023-02-12T03:59:30.209Z,39.60
2023-02-12T04:01:59.377Z,32.50
2023-02-12T04:04:27.825Z,37.43
2023-02-12T04:06:56.336Z,24.00
2023-02-12T04:09:26.928Z,18.53
2023-02-12T04:12:19.085Z,12.40
2023-02-12T04:14:50.226Z,31.00
2023-02-12T04:17:26.501Z,43.00
2023-02-12T04:20:32.768Z,41.83
2023-02-12T04:22:59.931Z,50.47
2023-02-12T04:26:05.763Z,57.00
2023-02-12T04:28:55.024Z,53.43
2023-02-12T04:31:43.773Z,50.23
2023-02-12T04:34:33.242Z,43.70
2023-02-12T04:37:09.957Z,26.57
2023-02-12T04:39:39.936Z,50.77
2023-02-12T04:42:08.006Z,36.93
2023-02-12T04:44:40.409Z,42.90
2023-02-12T04:47:08.121Z,43.63
2023-02-12T04:49:35.320Z,29.73
2023-02-12T04:52:02.651Z,47.57
2023-02-12T04:54:29.824Z,57.30
2023-02-12T04:56:57.174Z,58.23
2023-02-12T04:59:24.492Z,66.20
2023-02-12T05:01:51.840Z,111.40
2023-02-12T05:04:19.967Z,50.60
2023-02-12T05:06:47.616Z,92.80
2023-02-12T05:09:20.102Z,64.10
2023-02-12T05:11:47.722Z,64.00
2023-02-12T05:14:15.259Z,60.30
2023-02-12T05:16:42.563Z,59.77
2023-02-12T05:19:09.882Z,107.70
2023-02-12T05:21:38.301Z,102.67
2023-02-12T05:24:05.956Z,86.67
2023-02-12T05:26:34.267Z,97.57
2023-02-12T05:29:01.984Z,94.23
2023-02-12T05:31:29.504Z,105.00
2023-02-12T05:33:56.691Z,138.93
2023-02-12T05:36:25.187Z,145.43
2023-02-12T05:38:56.459Z,47.73
2023-02-12T05:41:25.403Z,76.03
2023-02-12T05:43:53.537Z,126.90
2023-02-12T05:46:22.288Z,126.00
2023-02-12T05:48:49.585Z,121.37
2023-02-12T05:51:21.722Z,177.27
2023-02-12T05:53:51.105Z,155.67
2023-02-12T05:56:26.493Z,122.70
2023-02-12T05:58:56.113Z,188.87
2023-02-12T06:01:29.383Z,89.47
2023-02-12T06:03:57.880Z,118.60
2023-02-12T06:06:26.897Z,124.50
2023-02-12T06:08:54.495Z,81.80
2023-02-12T06:11:22.513Z,131.60
2023-02-12T06:13:49.761Z,69.73
2023-02-12T06:16:19.641Z,75.00
2023-02-12T06:18:47.686Z,141.03
2023-02-12T06:21:16.020Z,102.43
2023-02-12T06:23:43.312Z,127.63
2023-02-12T06:26:11.082Z,114.03
2023-02-12T06:28:38.961Z,113.40
2023-02-12T06:31:06.306Z,106.50
2023-02-12T06:33:35.486Z,90.77
2023-02-12T06:36:04.493Z,84.27
2023-02-12T06:38:34.985Z,122.10
2023-02-12T06:41:03.033Z,108.13
2023-02-12T06:43:30.996Z,86.00
2023-02-12T06:46:01.138Z,127.77
2023-02-12T06:48:29.211Z,67.17
2023-02-12T06:50:56.964Z,108.40
2023-02-12T06:53:24.125Z,112.07
2023-02-12T06:55:51.268Z,115.90
2023-02-12T06:58:18.418Z,80.97
2023-02-12T07:00:45.936Z,89.60
2023-02-12T07:03:13.629Z,94.80
2023-02-12T07:05:44.256Z,75.73
2023-02-12T07:08:11.588Z,93.03
2023-02-12T07:10:40.001Z,104.50
2023-02-12T07:13:07.177Z,66.23
2023-02-12T07:15:38.102Z,55.17
2023-02-12T07:18:05.275Z,88.47
2023-02-12T07:20:32.515Z,65.40
2023-02-12T07:22:59.724Z,70.93
2023-02-12T07:25:26.906Z,84.57
2023-02-12T07:27:54.083Z,66.50
2023-02-12T07:30:21.348Z,90.17
2023-02-12T07:32:49.071Z,49.87
2023-02-12T07:35:16.246Z,91.67
2023-02-12T07:37:49.375Z,76.20
2023-02-12T07:40:16.779Z,73.37
2023-02-12T07:42:44.019Z,54.07
2023-02-12T07:45:11.297Z,72.33
2023-02-12T07:47:38.622Z,83.57
2023-02-12T07:50:08.433Z,62.47
2023-02-12T07:52:35.660Z,57.23
2023-02-12T07:55:03.836Z,65.20
2023-02-12T07:57:31.129Z,59.70
2023-02-12T07:59:59.598Z,59.50
2023-02-12T08:02:26.953Z,55.70
2023-02-12T08:04:58.174Z,74.17
2023-02-12T08:07:25.670Z,51.73
2023-02-12T08:09:53.391Z,46.47
2023-02-12T08:12:20.703Z,49.27
2023-02-12T08:14:47.919Z,42.10
2023-02-12T08:17:15.506Z,35.37
2023-02-12T08:20:08.025Z,34.50
2023-02-12T08:22:35.930Z,38.03
2023-02-12T08:25:03.119Z,34.53
2023-02-12T08:27:30.321Z,32.23
2023-02-12T08:29:57.465Z,34.20
2023-02-12T08:32:24.682Z,39.60
2023-02-12T08:34:51.897Z,38.57
2023-02-12T08:37:19.135Z,32.50
2023-02-12T08:39:46.934Z,34.17
2023-02-12T08:42:14.108Z,31.00
2023-02-12T08:44:42.505Z,36.03
2023-02-12T08:47:10.107Z,34.97
2023-02-12T08:49:37.730Z,35.20
2023-02-12T08:52:05.619Z,35.67
2023-02-12T08:54:32.957Z,36.20
2023-02-12T08:57:02.230Z,31.00
2023-02-12T08:59:30.839Z,37.53
2023-02-12T09:01:58.070Z,43.23
2023-02-12T09:04:27.811Z,34.80
2023-02-12T09:06:55.363Z,36.10
2023-02-12T09:09:23.315Z,52.90
2023-02-12T09:11:50.741Z,51.88
2023-02-12T09:14:23.451Z,45.60
2023-02-12T09:16:52.955Z,30.17
2023-02-12T09:19:21.562Z,36.30
2023-02-12T09:21:55.510Z,37.60
2023-02-12T09:24:25.130Z,29.90
2023-02-12T09:26:52.967Z,24.67
2023-02-12T09:29:20.236Z,27.97
2023-02-12T09:31:48.283Z,22.47
2023-02-12T09:34:15.523Z,23.73
2023-02-12T09:36:42.694Z,20.60
2023-02-12T09:39:09.936Z,21.90
2023-02-12T09:41:50.543Z,19.40
2023-02-12T09:44:36.776Z,22.97
2023-02-12T09:47:13.500Z,21.37
2023-02-12T09:49:55.953Z,15.73
2023-02-12T09:52:27.208Z,18.70
2023-02-12T09:54:56.347Z,13.73
2023-02-12T09:57:35.971Z,20.30
2023-02-12T10:00:18.092Z,14.87
2023-02-12T10:02:46.473Z,17.10
2023-02-12T10:05:20.807Z,15.90
2023-02-12T10:08:15.492Z,15.93
2023-02-12T10:10:53.603Z,21.70
2023-02-12T10:14:14.911Z,19.03
2023-02-12T10:17:12.257Z,15.67
2023-02-12T10:20:00.984Z,20.80
2023-02-12T10:22:48.235Z,15.90
2023-02-12T10:25:34.482Z,21.50
2023-02-12T10:28:11.217Z,20.87
2023-02-12T10:31:02.762Z,19.73
2023-02-12T10:33:36.464Z,16.10
2023-02-12T10:36:35.237Z,20.27
2023-02-12T10:39:12.785Z,17.30
2023-02-12T10:41:52.748Z,17.60
2023-02-12T10:44:19.974Z,13.87
2023-02-12T10:46:47.240Z,16.53
2023-02-12T10:49:17.019Z,14.20
2023-02-12T10:52:03.466Z,17.37
2023-02-12T10:54:40.860Z,17.27
2023-02-12T10:57:21.868Z,15.97
2023-02-12T10:59:53.047Z,22.10
2023-02-12T11:02:30.478Z,17.97
2023-02-12T11:04:59.946Z,19.30
2023-02-12T11:07:28.176Z,18.27
2023-02-12T11:09:57.072Z,15.93
2023-02-12T11:12:31.604Z,15.13
2023-02-12T11:15:01.725Z,17.83
2023-02-12T11:17:39.673Z,18.90
2023-02-12T11:20:16.214Z,16.90
2023-02-12T11:22:59.003Z,16.10
2023-02-12T11:25:29.281Z,16.50
2023-02-12T11:28:15.559Z,15.13
2023-02-12T11:30:55.525Z,15.30
2023-02-12T11:33:29.219Z,14.25
2023-02-12T11:36:12.496Z,15.00
2023-02-12T11:38:55.504Z,15.30
2023-02-12T11:41:43.709Z,11.90
2023-02-12T11:44:21.497Z,11.07
2023-02-12T11:46:53.453Z,16.53
2023-02-12T11:49:30.056Z,6.90
2023-02-12T11:51:58.537Z,8.27
2023-02-12T11:54:30.811Z,8.60
2023-02-12T11:56:58.575Z,7.77
2023-02-12T11:59:38.409Z,7.00
2023-02-12T12:02:30.223Z,6.40
2023-02-12T12:05:08.389Z,7.27
2023-02-12T12:07:38.914Z,6.30
2023-02-12T12:10:15.518Z,7.17
2023-02-12T12:12:51.145Z,5.27
2023-02-12T12:15:37.064Z,6.27
2023-02-12T12:18:39.083Z,6.67
2023-02-12T12:21:34.025Z,5.50
2023-02-12T12:24:09.709Z,5.30
2023-02-12T12:26:40.649Z,4.20
2023-02-12T12:29:22.089Z,5.13
2023-02-12T12:31:54.757Z,5.00
2023-02-12T12:34:24.660Z,5.47
2023-02-12T12:37:19.895Z,6.53
2023-02-12T12:40:18.239Z,4.40
2023-02-12T12:43:13.045Z,3.20
2023-02-12T12:45:56.199Z,3.43
2023-02-12T12:49:01.141Z,3.00
2023-02-12T12:51:41.713Z,3.33
2023-02-12T12:54:36.395Z,2.73
2023-02-12T12:57:16.886Z,3.03
2023-02-12T13:00:25.380Z,3.13
2023-02-12T13:03:24.767Z,2.40
2023-02-12T13:06:49.278Z,3.20
2023-02-12T13:10:12.905Z,4.40
2023-02-12T13:13:00.903Z,4.57
2023-02-12T13:15:39.250Z,3.90
2023-02-12T13:18:13.777Z,4.97
2023-02-12T13:21:06.988Z,5.40
2023-02-12T13:23:57.149Z,4.93
2023-02-12T13:26:52.743Z,4.20
2023-02-12T13:29:25.969Z,4.63
2023-02-12T13:32:00.232Z,3.90
2023-02-12T13:34:30.575Z,4.60
2023-02-12T13:37:01.023Z,4.20
2023-02-12T13:39:39.298Z,4.13
2023-02-12T13:42:18.556Z,4.50
2023-02-12T13:45:05.495Z,3.20
2023-02-12T13:47:58.630Z,4.10
2023-02-12T13:50:46.024Z,4.90
2023-02-12T13:53:37.025Z,3.60
2023-02-12T13:56:27.958Z,2.47
2023-02-12T13:58:56.618Z,3.43
2023-02-12T14:01:41.804Z,3.30
2023-02-12T14:04:22.930Z,4.10
2023-02-12T14:07:02.634Z,3.67
2023-02-12T14:09:40.928Z,4.80
2023-02-12T14:12:26.756Z,4.47
2023-02-12T14:15:04.216Z,3.57
2023-02-12T14:17:31.940Z,2.50
2023-02-12T14:20:24.348Z,2.13
2023-02-12T14:22:51.528Z,2.13
2023-02-12T14:25:32.295Z,2.63
2023-02-12T14:28:12.880Z,4.13
2023-02-12T14:30:41.457Z,4.10
2023-02-12T14:33:27.064Z,2.63
2023-02-12T14:36:18.276Z,2.40
2023-02-12T14:38:47.774Z,4.30
2023-02-12T14:41:42.643Z,4.13
2023-02-12T14:44:29.320Z,2.10
2023-02-12T14:46:59.222Z,2.43
2023-02-12T14:49:46.617Z,2.30
2023-02-12T14:52:16.760Z,1.97
2023-02-12T14:54:50.926Z,2.10
2023-02-12T14:57:28.943Z,2.17
2023-02-12T15:00:00.314Z,2.40
2023-02-12T15:02:32.686Z,2.20
2023-02-12T15:05:07.502Z,2.40
2023-02-12T15:08:03.978Z,2.60
2023-02-12T15:10:48.762Z,2.50
2023-02-12T15:13:22.017Z,3.03
2023-02-12T15:15:55.044Z,2.33
2023-02-12T15:18:27.395Z,2.80
2023-02-12T15:21:06.638Z,3.00
2023-02-12T15:23:33.860Z,2.50
2023-02-12T15:26:03.389Z,2.40
2023-02-12T15:28:35.437Z,1.93
2023-02-12T15:31:06.079Z,3.00
2023-02-12T15:33:37.648Z,2.60
2023-02-12T15:36:06.521Z,3.87
2023-02-12T15:38:38.492Z,2.90
2023-02-12T15:41:07.212Z,3.37
2023-02-12T15:43:39.638Z,3.43
2023-02-12T15:46:17.254Z,3.30
2023-02-12T15:48:45.240Z,2.90
2023-02-12T15:51:34.731Z,4.40
2023-02-12T15:54:06.810Z,2.80
2023-02-12T15:56:36.181Z,3.33
2023-02-12T15:59:04.144Z,3.10
2023-02-12T16:01:34.992Z,3.47
2023-02-12T16:04:07.332Z,3.53
2023-02-12T16:06:36.745Z,4.07
2023-02-12T16:09:16.455Z,3.67
2023-02-12T16:11:46.132Z,6.10
2023-02-12T16:14:24.599Z,3.77
2023-02-12T16:16:54.869Z,3.53
2023-02-12T16:19:25.090Z,4.00
2023-02-12T16:22:05.864Z,4.27
2023-02-12T16:24:45.195Z,3.97
2023-02-12T16:27:15.444Z,4.93
2023-02-12T16:29:49.720Z,5.07
2023-02-12T16:32:49.519Z,5.30
2023-02-12T16:35:16.748Z,5.20
2023-02-12T16:37:52.027Z,4.60
2023-02-12T16:40:26.874Z,8.90
2023-02-12T16:42:54.276Z,5.03
2023-02-12T16:45:27.504Z,7.50
2023-02-12T16:48:00.363Z,6.17
2023-02-12T16:50:32.176Z,6.07
2023-02-12T16:53:04.978Z,6.80
2023-02-12T16:55:32.648Z,5.87
2023-02-12T16:58:00.866Z,7.90
2023-02-12T17:00:28.154Z,7.63
2023-02-12T17:02:56.242Z,6.47
2023-02-12T17:05:24.096Z,8.20
2023-02-12T17:07:51.662Z,6.73
2023-02-12T17:10:19.037Z,7.90
2023-02-12T17:12:51.925Z,7.30
2023-02-12T17:15:30.307Z,7.30
2023-02-12T17:17:57.557Z,8.30
2023-02-12T17:20:25.086Z,9.20
2023-02-12T17:22:57.165Z,9.10
2023-02-12T17:25:24.764Z,9.37
2023-02-12T17:27:52.351Z,9.70
2023-02-12T17:30:24.106Z,10.33
2023-02-12T17:32:51.799Z,10.33
2023-02-12T17:35:19.146Z,11.90
2023-02-12T17:37:48.032Z,10.13
2023-02-12T17:40:16.337Z,10.63
2023-02-12T17:43:08.691Z,12.23
2023-02-12T17:45:43.001Z,11.50
2023-02-12T17:48:15.536Z,13.37
2023-02-12T17:50:43.587Z,13.20
2023-02-12T17:53:10.845Z,14.00
2023-02-12T17:55:40.354Z,17.77
2023-02-12T17:58:08.158Z,16.00
2023-02-12T18:00:36.128Z,16.30
2023-02-12T18:03:03.423Z,18.60
2023-02-12T18:05:30.994Z,18.83
2023-02-12T18:07:58.400Z,18.43
2023-02-12T18:10:25.644Z,15.77
2023-02-12T18:12:52.821Z,17.40
2023-02-12T18:15:21.134Z,15.93
2023-02-12T18:17:49.091Z,16.27
2023-02-12T18:20:16.303Z,16.47
2023-02-12T18:22:45.256Z,16.23
2023-02-12T18:25:12.505Z,15.90
2023-02-12T18:27:39.851Z,15.93
2023-02-12T18:30:08.932Z,16.60
2023-02-12T18:32:36.653Z,19.10
2023-02-12T18:35:06.490Z,15.37
2023-02-12T18:37:34.554Z,15.60
2023-02-12T18:40:02.434Z,17.03
2023-02-12T18:42:33.173Z,17.23
2023-02-12T18:45:00.909Z,14.37
2023-02-12T18:47:29.171Z,16.73
2023-02-12T18:49:57.933Z,15.43
2023-02-12T18:52:25.234Z,15.50
2023-02-12T18:54:53.052Z,16.10
2023-02-12T18:57:20.409Z,16.20
2023-02-12T18:59:47.713Z,16.13
2023-02-12T19:02:14.977Z,13.67
2023-02-12T19:04:42.311Z,15.70
2023-02-12T19:07:09.575Z,14.03
2023-02-12T19:09:36.811Z,14.43
2023-02-12T19:12:05.580Z,16.67
2023-02-12T19:14:33.703Z,15.70
2023-02-12T19:17:01.739Z,16.20
2023-02-12T19:19:32.945Z,14.67
2023-02-12T19:22:00.123Z,18.27
2023-02-12T19:24:40.896Z,16.60
2023-02-12T19:27:09.211Z,13.57
2023-02-12T19:29:36.849Z,14.57
2023-02-12T19:32:04.235Z,14.23
2023-02-12T19:34:31.500Z,13.20
2023-02-12T19:36:58.780Z,14.93
2023-02-12T19:39:27.375Z,13.07
2023-02-12T19:41:56.101Z,14.87
2023-02-12T19:44:25.110Z,16.03
2023-02-12T19:46:53.033Z,14.97
2023-02-12T19:49:25.890Z,14.47
2023-02-12T19:51:53.143Z,19.00
2023-02-12T19:54:23.029Z,17.83
2023-02-12T19:56:51.581Z,16.20
2023-02-12T19:59:21.720Z,13.17
2023-02-12T20:01:49.923Z,15.03
2023-02-12T20:04:20.369Z,17.23
2023-02-12T20:06:52.196Z,13.53
2023-02-12T20:09:21.942Z,13.30
2023-02-12T20:11:49.231Z,17.80
2023-02-12T20:14:17.384Z,14.80
2023-02-12T20:16:46.772Z,11.23
2023-02-12T20:19:29.877Z,13.37
2023-02-12T20:21:58.801Z,12.47
2023-02-12T20:24:29.529Z,13.03
2023-02-12T20:26:58.437Z,11.63
2023-02-12T20:29:26.315Z,17.10
2023-02-12T20:31:53.894Z,12.20
2023-02-12T20:34:22.231Z,14.17
2023-02-12T20:36:49.746Z,14.10
2023-02-12T20:39:20.074Z,14.50
2023-02-12T20:41:48.060Z,17.10
2023-02-12T20:44:18.246Z,15.77
2023-02-12T20:46:47.133Z,15.60
2023-02-12T20:49:16.866Z,12.20
2023-02-12T20:51:45.118Z,15.10
2023-02-12T20:54:12.650Z,12.50
2023-02-12T20:56:39.890Z,15.47
2023-02-12T20:59:07.929Z,15.40
2023-02-12T21:01:38.211Z,15.70
2023-02-12T21:04:08.733Z,14.00
2023-02-12T21:06:36.928Z,12.87
2023-02-12T21:09:04.181Z,15.20
2023-02-12T21:11:31.606Z,13.50
2023-02-12T21:14:18.548Z,16.33
2023-02-12T21:16:47.171Z,13.80
2023-02-12T21:19:20.557Z,13.10
2023-02-12T21:21:47.812Z,14.43
2023-02-12T21:24:18.165Z,14.47
2023-02-12T21:26:46.225Z,14.83
2023-02-12T21:29:14.196Z,13.80
2023-02-12T21:31:44.691Z,15.60
2023-02-12T21:34:17.496Z,13.27
2023-02-12T21:36:46.968Z,15.53
2023-02-12T21:39:24.429Z,13.10
2023-02-12T21:41:54.649Z,13.20
2023-02-12T21:44:23.502Z,14.27
2023-02-12T21:46:50.754Z,13.57
2023-02-12T21:49:24.635Z,13.90
2023-02-12T21:51:58.205Z,12.30
2023-02-12T21:54:26.035Z,12.70
2023-02-12T21:56:53.219Z,16.50
2023-02-12T21:59:21.185Z,13.40
2023-02-12T22:01:50.815Z,14.20
2023-02-12T22:04:19.148Z,14.67
2023-02-12T22:06:49.592Z,14.90
2023-02-12T22:09:22.031Z,21.20
2023-02-12T22:11:49.653Z,15.00
2023-02-12T22:14:17.784Z,14.17
2023-02-12T22:16:45.986Z,13.17
2023-02-12T22:19:13.326Z,14.77
2023-02-12T22:21:42.218Z,14.43
2023-02-12T22:24:12.517Z,16.13
2023-02-12T22:26:39.716Z,14.33
2023-02-12T22:29:09.573Z,17.17
2023-02-12T22:31:40.280Z,16.30
2023-02-12T22:34:12.635Z,17.60
2023-02-12T22:36:40.859Z,15.60
2023-02-12T22:39:10.074Z,23.70
2023-02-12T22:42:02.925Z,19.83
2023-02-12T22:44:30.084Z,14.50
2023-02-12T22:46:57.763Z,15.27
2023-02-12T22:49:24.996Z,18.37
2023-02-12T22:51:52.697Z,18.00
2023-02-12T22:54:21.040Z,18.87
2023-02-12T22:56:51.946Z,17.50
2023-02-12T22:59:19.362Z,18.33
2023-02-12T23:01:46.991Z,16.83
2023-02-12T23:04:16.729Z,16.87
2023-02-12T23:06:46.002Z,18.00
2023-02-12T23:09:16.594Z,16.93
2023-02-12T23:11:43.817Z,15.50
2023-02-12T23:14:11.700Z,18.00
2023-02-12T23:16:39.047Z,18.10
2023-02-12T23:19:06.586Z,18.20
2023-02-12T23:21:34.154Z,15.37
2023-02-12T23:24:01.385Z,16.53
2023-02-12T23:26:29.834Z,16.23
2023-02-12T23:28:58.055Z,15.93
2023-02-12T23:31:25.988Z,17.03
2023-02-12T23:33:58.270Z,15.13
2023-02-12T23:36:25.889Z,14.23
2023-02-12T23:38:53.075Z,15.90
2023-02-12T23:41:20.444Z,13.80
2023-02-12T23:43:47.625Z,16.77
2023-02-12T23:46:14.916Z,14.47
2023-02-12T23:48:44.342Z,12.60
2023-02-12T23:51:11.759Z,12.80
2023-02-12T23:53:38.953Z,13.20
2023-02-12T23:56:07.016Z,11.67
2023-02-12T23:58:34.171Z,14.60
